Time;durP1;ratioP1;P1;durP2;ratioP2;P2;SDS_P1;SDS_P2;PMS_P1;PMS_P2;Temp;Humidity;BMP_temperature;BMP_pressure;BME280_temperature;BME280_humidity;BME280_pressure;Samples;Min_cycle;Max_cycle;Signal;HPM_P1;HPM_P2
2022/06/14 00:03:16;;;;;;;9.88;1.85;;;12.10;99.90;;;;;;4962687;28;20114;-82
2022/06/14 00:05:42;;;;;;;5.90;1.50;;;12.00;99.90;;;;;;4968850;28;20419;-82
2022/06/14 00:08:08;;;;;;;8.82;1.83;;;12.00;99.90;;;;;;4940450;28;20023;-82
2022/06/14 00:10:34;;;;;;;6.22;1.75;;;12.00;99.90;;;;;;4964630;28;20031;-82
2022/06/14 00:13:00;;;;;;;8.43;1.75;;;11.90;99.90;;;;;;4968168;28;20468;-82
2022/06/14 00:15:26;;;;;;;9.27;1.63;;;11.90;99.90;;;;;;4969758;28;20039;-82
2022/06/14 00:17:52;;;;;;;8.35;2.00;;;11.90;99.90;;;;;;4954211;28;20029;-82
2022/06/14 00:20:17;;;;;;;4.18;1.40;;;11.90;99.90;;;;;;4939546;29;20053;-82
2022/06/14 00:22:43;;;;;;;5.60;1.60;;;11.90;99.90;;;;;;4962703;28;20460;-82
2022/06/14 00:25:23;;;;;;;10.15;1.85;;;11.90;99.90;;;;;;4954462;28;20070;-82
2022/06/14 00:27:48;;;;;;;9.45;2.03;;;11.90;99.90;;;;;;4957911;28;20034;-82
2022/06/14 00:30:14;;;;;;;4.95;1.50;;;11.90;99.90;;;;;;4955537;29;20399;-82
2022/06/14 00:32:40;;;;;;;6.95;1.80;;;11.90;99.90;;;;;;4963224;28;20054;-82
2022/06/14 00:35:05;;;;;;;6.03;1.42;;;11.80;99.90;;;;;;4964951;28;20031;-82
2022/06/14 00:37:31;;;;;;;3.83;1.58;;;11.70;99.90;;;;;;4955457;29;20038;-83
2022/06/14 00:39:58;;;;;;;8.23;1.45;;;11.70;99.90;;;;;;4959995;28;20529;-82
2022/06/14 00:42:23;;;;;;;10.55;2.20;;;11.70;99.90;;;;;;4938011;29;20083;-82
2022/06/14 00:45:34;;;;;;;5.97;2.00;;;11.70;99.90;;;;;;4954970;29;20027;-83
2022/06/14 00:48:05;;;;;;;9.07;2.22;;;11.70;99.90;;;;;;4955238;28;20400;-83
2022/06/14 00:50:43;;;;;;;11.50;2.08;;;11.60;99.90;;;;;;4962570;28;20479;-83
2022/06/14 00:53:14;;;;;;;5.55;1.63;;;11.60;99.90;;;;;;4959427;28;20032;-83
2022/06/14 00:55:48;;;;;;;7.50;1.65;;;11.50;99.90;;;;;;4954601;29;20075;-84
2022/06/14 00:58:24;;;;;;;9.75;2.03;;;11.50;99.90;;;;;;4937533;29;20566;-83
2022/06/14 01:01:04;;;;;;;8.63;2.67;;;11.40;99.90;;;;;;4952962;28;20031;-83
2022/06/14 01:03:43;;;;;;;5.20;1.48;;;11.40;99.90;;;;;;4958399;28;20398;-83
2022/06/14 01:06:24;;;;;;;8.85;1.95;;;11.40;99.90;;;;;;4973682;28;20105;-82
2022/06/14 01:09:29;;;;;;;12.63;2.67;;;11.30;99.90;;;;;;4974339;28;20027;-83
2022/06/14 01:12:09;;;;;;;4.55;1.60;;;11.30;99.90;;;;;;4877136;29;20557;-83
2022/06/14 01:14:41;;;;;;;6.82;1.85;;;11.20;99.90;;;;;;4955020;28;20051;-83
2022/06/14 01:17:12;;;;;;;7.82;1.60;;;11.20;99.90;;;;;;4949322;28;20360;-83
2022/06/14 01:19:38;;;;;;;6.85;1.55;;;11.10;99.90;;;;;;4935846;29;20079;-83
2022/06/14 01:22:07;;;;;;;7.50;2.20;;;11.10;99.90;;;;;;4935803;29;20096;-83
2022/06/14 01:24:34;;;;;;;6.32;1.90;;;11.00;99.90;;;;;;4918495;29;20015;-83
2022/06/14 01:27:08;;;;;;;7.78;2.00;;;11.00;99.90;;;;;;4950407;29;20090;-82
2022/06/14 01:29:36;;;;;;;3.80;1.30;;;11.00;99.90;;;;;;4956779;28;20082;-82
2022/06/14 01:32:07;;;;;;;6.80;1.60;;;11.00;99.90;;;;;;4974042;28;20106;-83
2022/06/14 01:34:35;;;;;;;8.73;1.63;;;10.90;99.90;;;;;;4974138;28;20027;-83
2022/06/14 01:37:02;;;;;;;9.48;2.03;;;10.90;99.90;;;;;;4974266;28;20019;-83
2022/06/14 01:39:28;;;;;;;10.00;2.20;;;10.80;99.90;;;;;;4956602;28;20387;-83
2022/06/14 01:42:10;;;;;;;4.35;1.75;;;10.80;99.90;;;;;;4956244;28;20022;-82
2022/06/14 01:44:49;;;;;;;7.72;1.67;;;10.70;99.90;;;;;;4962888;28;20032;-82
2022/06/14 01:47:52;;;;;;;12.65;1.70;;;10.70;99.90;;;;;;4954575;29;20166;-82
2022/06/14 01:53:49;;;;;;;7.85;1.80;;;10.60;99.90;;;;;;4954763;29;20087;-82
2022/06/14 01:56:47;;;;;;;7.63;1.50;;;10.60;99.90;;;;;;4936716;29;20035;-82
2022/06/14 01:59:26;;;;;;;9.77;1.88;;;10.60;99.90;;;;;;4920005;29;20392;-82
2022/06/14 02:02:05;;;;;;;6.22;2.17;;;10.50;99.90;;;;;;4954624;29;20038;-82
2022/06/14 02:04:50;;;;;;;4.50;1.55;;;10.50;99.90;;;;;;4954071;28;20571;-83
2022/06/14 02:08:08;;;;;;;13.35;2.95;;;10.50;99.90;;;;;;4954467;29;20093;-82
2022/06/14 02:10:41;;;;;;;;;;;10.50;99.90;;;;;;4936126;29;20484;-82
2022/06/14 02:13:36;;;;;;;5.13;1.60;;;10.40;99.90;;;;;;4954178;29;20330;-82
2022/06/14 02:16:16;;;;;;;7.68;1.60;;;10.40;99.90;;;;;;4939532;29;20039;-83
2022/06/14 02:19:03;;;;;;;5.38;2.08;;;10.40;99.90;;;;;;4958276;29;20030;-82
2022/06/14 02:21:35;;;;;;;9.18;1.98;;;10.30;99.90;;;;;;4958110;29;20019;-82
2022/06/14 02:24:22;;;;;;;4.72;1.25;;;10.30;99.90;;;;;;4940639;29;20031;-81
2022/06/14 02:26:55;;;;;;;2.17;1.20;;;10.30;99.90;;;;;;4957490;29;20023;-82
2022/06/14 02:29:37;;;;;;;4.20;1.60;;;10.30;99.90;;;;;;4957633;29;20036;-82
2022/06/14 02:32:09;;;;;;;10.52;1.40;;;10.30;99.90;;;;;;4957868;29;20506;-82
2022/06/14 02:34:49;;;;;;;4.53;1.70;;;10.30;99.90;;;;;;4971153;28;20368;-82
2022/06/14 02:37:38;;;;;;;5.10;1.95;;;10.30;99.90;;;;;;4953135;28;20032;-82
2022/06/14 02:40:13;;;;;;;7.28;1.65;;;10.20;99.90;;;;;;4925407;29;20381;-82
2022/06/14 02:42:56;;;;;;;10.35;1.95;;;10.20;99.90;;;;;;4956740;28;20050;-82
2022/06/14 02:45:38;;;;;;;11.40;2.10;;;10.10;99.90;;;;;;4939765;29;20043;-82
2022/06/14 02:48:14;;;;;;;8.15;2.08;;;10.10;99.90;;;;;;4938599;29;20027;-82
2022/06/14 02:50:46;;;;;;;7.38;1.95;;;10.10;99.90;;;;;;4939145;28;20032;-82
2022/06/14 02:53:22;;;;;;;10.63;2.53;;;10.00;99.90;;;;;;4922965;28;20427;-82
2022/06/14 02:55:53;;;;;;;8.98;1.88;;;10.00;99.90;;;;;;4969358;28;20485;-82
2022/06/14 02:58:34;;;;;;;10.25;2.22;;;10.00;99.90;;;;;;4930313;29;20038;-81
2022/06/14 03:01:11;;;;;;;5.88;2.05;;;10.00;99.90;;;;;;4954651;29;20024;-82
2022/06/14 03:03:55;;;;;;;8.18;1.77;;;10.00;99.90;;;;;;4940000;29;20122;-82
2022/06/14 03:06:32;;;;;;;3.30;1.67;;;10.00;99.90;;;;;;4957103;29;20047;-81
2022/06/14 03:09:20;;;;;;;6.95;2.13;;;10.00;99.90;;;;;;4940150;29;20390;-81
2022/06/14 03:12:17;;;;;;;8.35;2.00;;;10.00;99.90;;;;;;4939442;29;20542;-81
2022/06/14 03:15:08;;;;;;;6.20;2.05;;;10.00;99.90;;;;;;4939711;29;20118;-81
2022/06/14 03:17:39;;;;;;;5.97;1.60;;;10.00;99.90;;;;;;4957093;29;20027;-81
2022/06/14 03:20:14;;;;;;;12.25;3.22;;;10.00;99.90;;;;;;4957141;29;20086;-82
2022/06/14 03:23:08;;;;;;;10.70;2.03;;;10.00;99.90;;;;;;4956920;29;20024;-81
2022/06/14 03:26:03;;;;;;;6.72;2.22;;;10.00;99.90;;;;;;4950549;28;20365;-82
2022/06/14 03:28:36;;;;;;;8.07;2.00;;;10.00;99.90;;;;;;4954871;29;20034;-82
2022/06/14 03:31:15;;;;;;;6.30;2.13;;;10.00;99.90;;;;;;4957062;29;20035;-81
2022/06/14 03:34:20;;;;;;;11.18;2.70;;;10.00;99.90;;;;;;4956809;29;20595;-81
2022/06/14 03:36:46;;;;;;;6.75;1.70;;;10.10;99.90;;;;;;4932571;29;20624;-82
2022/06/14 03:39:22;;;;;;;6.18;1.85;;;10.10;99.90;;;;;;4938012;29;20110;-82
2022/06/14 03:41:50;;;;;;;11.68;2.35;;;10.10;99.90;;;;;;4955883;29;20391;-81
2022/06/14 03:44:17;;;;;;;8.93;2.58;;;10.10;99.90;;;;;;4965708;28;20026;-81
2022/06/14 03:47:09;;;;;;;5.47;1.50;;;10.20;99.90;;;;;;4964089;28;20098;-81
2022/06/14 03:49:41;;;;;;;4.55;2.00;;;10.20;99.90;;;;;;4970263;28;20027;-82
2022/06/14 03:52:29;;;;;;;9.52;2.63;;;10.20;99.90;;;;;;4962157;28;20027;-81
2022/06/14 03:55:30;;;;;;;9.38;2.33;;;10.20;99.90;;;;;;4955050;29;20490;-82
2022/06/14 03:57:59;;;;;;;6.78;1.70;;;10.30;99.90;;;;;;4944866;29;20038;-82
2022/06/14 04:00:45;;;;;;;3.15;1.60;;;10.30;99.90;;;;;;4951141;28;20487;-82
2022/06/14 04:03:26;;;;;;;4.63;1.98;;;10.30;99.90;;;;;;4941246;29;20039;-82
2022/06/14 04:06:06;;;;;;;3.05;1.42;;;10.30;99.90;;;;;;4956241;29;20113;-82
2022/06/14 04:08:50;;;;;;;5.82;1.63;;;10.30;99.90;;;;;;4955691;28;20038;-82
2022/06/14 04:11:29;;;;;;;5.97;1.85;;;10.30;99.90;;;;;;4958172;28;20042;-81
2022/06/14 04:14:25;;;;;;;7.65;1.98;;;10.40;99.90;;;;;;4959993;28;20034;-82
2022/06/14 04:17:21;;;;;;;6.28;1.83;;;10.40;99.90;;;;;;4952110;28;20588;-82
2022/06/14 04:20:08;;;;;;;7.13;2.03;;;10.40;99.90;;;;;;4949477;29;20549;-82
2022/06/14 04:23:17;;;;;;;4.00;1.35;;;10.40;99.90;;;;;;4940805;29;20020;-82
2022/06/14 04:25:59;;;;;;;6.65;2.47;;;10.50;99.90;;;;;;4943322;29;20047;-82
2022/06/14 04:29:26;;;;;;;8.55;2.17;;;10.50;99.90;;;;;;4951651;28;20089;-82
2022/06/14 04:32:12;;;;;;;6.05;2.10;;;10.60;99.90;;;;;;4809374;29;20045;-82
2022/06/14 04:34:51;;;;;;;7.43;2.35;;;10.70;99.90;;;;;;4852478;29;20045;-82
2022/06/14 04:37:27;;;;;;;13.65;2.47;;;10.70;99.90;;;;;;4921952;29;20043;-82
2022/06/14 04:40:06;;;;;;;8.50;2.00;;;10.80;99.90;;;;;;4933069;29;20055;-82
2022/06/14 04:42:39;;;;;;;8.35;2.00;;;10.90;99.90;;;;;;4967244;28;20031;-82
2022/06/14 04:45:25;;;;;;;8.40;2.47;;;11.00;99.90;;;;;;4949120;28;20087;-82
2022/06/14 04:48:00;;;;;;;4.13;1.90;;;11.10;99.90;;;;;;4946243;29;20099;-82
2022/06/14 04:50:32;;;;;;;8.30;2.13;;;11.20;99.90;;;;;;4954907;29;20035;-83
2022/06/14 04:53:06;;;;;;;10.70;3.10;;;11.30;99.90;;;;;;4937693;29;20038;-82
2022/06/14 04:55:37;;;;;;;15.90;3.40;;;11.40;99.90;;;;;;4954122;29;20034;-82
2022/06/14 04:58:10;;;;;;;10.05;2.75;;;11.60;99.90;;;;;;4940742;28;20046;-82
2022/06/14 05:00:57;;;;;;;12.18;3.50;;;11.70;99.90;;;;;;4965678;28;20030;-82
2022/06/14 05:03:36;;;;;;;17.38;4.20;;;11.80;99.90;;;;;;4958403;28;20050;-82
2022/06/14 05:06:21;;;;;;;15.52;3.58;;;11.90;99.90;;;;;;4952495;29;20480;-82
2022/06/14 05:08:58;;;;;;;8.15;2.83;;;12.00;99.90;;;;;;4937450;29;20038;-82
2022/06/14 05:11:37;;;;;;;13.88;4.05;;;12.10;99.90;;;;;;4949223;29;20031;-83
2022/06/14 05:14:25;;;;;;;17.35;3.60;;;12.10;99.90;;;;;;4934224;29;20038;-83
2022/06/14 05:17:05;;;;;;;13.75;4.07;;;12.10;99.90;;;;;;4949660;29;20171;-82
2022/06/14 05:19:44;;;;;;;19.20;3.10;;;12.20;99.90;;;;;;4955111;29;20030;-82
2022/06/14 05:22:39;;;;;;;11.75;3.88;;;12.30;99.90;;;;;;4953111;29;20068;-82
2022/06/14 05:25:07;;;;;;;15.57;3.50;;;12.30;99.90;;;;;;4954154;29;20479;-83
2022/06/14 05:27:39;;;;;;;11.93;2.88;;;12.40;99.90;;;;;;4954599;29;20074;-83
2022/06/14 05:30:11;;;;;;;15.57;2.95;;;12.40;99.90;;;;;;4954591;28;20361;-82
2022/06/14 05:32:56;;;;;;;14.43;3.22;;;12.50;99.90;;;;;;4954863;29;20074;-82
2022/06/14 05:35:48;;;;;;;19.00;4.60;;;12.50;99.90;;;;;;4950906;28;20063;-83
2022/06/14 05:38:50;;;;;;;17.90;2.97;;;12.60;99.90;;;;;;4943734;28;20028;-83
2022/06/14 05:41:32;;;;;;;8.20;3.00;;;12.60;99.90;;;;;;4949168;29;20829;-82
2022/06/14 05:44:10;;;;;;;9.88;2.63;;;12.70;99.90;;;;;;4943932;29;20430;-82
2022/06/14 05:46:51;;;;;;;9.23;2.70;;;12.70;99.90;;;;;;4952626;29;20084;-83
2022/06/14 05:49:22;;;;;;;12.60;3.22;;;12.70;99.90;;;;;;4949422;28;20562;-83
2022/06/14 05:52:01;;;;;;;11.73;2.78;;;12.70;99.90;;;;;;4960414;28;20023;-83
2022/06/14 05:54:32;;;;;;;15.90;3.88;;;12.70;99.90;;;;;;4939867;29;20110;-82
2022/06/14 05:57:35;;;;;;;14.55;3.80;;;12.70;99.90;;;;;;4940640;28;20070;-82
2022/06/14 06:00:27;;;;;;;12.57;2.72;;;12.70;99.90;;;;;;4957195;28;20114;-83
2022/06/14 06:03:15;;;;;;;12.95;2.58;;;12.80;99.90;;;;;;4960559;28;20463;-83
2022/06/14 06:05:46;;;;;;;10.23;2.15;;;12.80;99.90;;;;;;4951388;29;20042;-83
2022/06/14 06:08:36;;;;;;;8.90;2.35;;;12.80;99.90;;;;;;4957285;29;20030;-83
2022/06/14 06:11:20;;;;;;;14.82;2.15;;;12.80;99.90;;;;;;4947479;28;20109;-83
2022/06/14 06:13:50;;;;;;;11.18;2.17;;;12.90;99.90;;;;;;4956370;28;20023;-83
2022/06/14 06:16:22;;;;;;;16.13;2.75;;;12.90;99.90;;;;;;4963550;28;20038;-82
2022/06/14 06:19:04;;;;;;;10.57;2.33;;;12.90;99.90;;;;;;4971854;28;20027;-82
2022/06/14 06:21:56;;;;;;;13.27;2.85;;;13.00;99.90;;;;;;4942795;28;20504;-83
2022/06/14 06:24:36;;;;;;;13.23;3.03;;;13.10;99.90;;;;;;4951039;28;20114;-83
2022/06/14 06:27:08;;;;;;;12.65;2.80;;;13.10;99.90;;;;;;4957489;28;20405;-83
2022/06/14 06:30:03;;;;;;;9.90;2.25;;;13.30;99.90;;;;;;4957332;28;20483;-83
2022/06/14 06:32:31;;;;;;;7.72;1.98;;;13.30;99.90;;;;;;4951609;28;20390;-83
2022/06/14 06:34:58;;;;;;;20.00;3.47;;;13.40;99.90;;;;;;4955820;28;20032;-83
2022/06/14 06:37:37;;;;;;;8.65;1.77;;;13.50;99.90;;;;;;4951516;29;20028;-83
2022/06/14 06:40:11;;;;;;;10.88;2.00;;;13.60;99.90;;;;;;4958020;28;20023;-82
2022/06/14 06:42:52;;;;;;;17.42;2.72;;;13.60;99.90;;;;;;4953828;28;20086;-83
2022/06/14 06:45:28;;;;;;;11.63;2.13;;;13.70;99.90;;;;;;4965075;28;20051;-83
2022/06/14 06:48:31;;;;;;;17.00;3.03;;;13.80;99.90;;;;;;4960200;28;20035;-83
2022/06/14 06:51:05;;;;;;;18.02;2.08;;;13.90;99.90;;;;;;4950782;28;20027;-83
2022/06/14 06:53:37;;;;;;;9.38;1.58;;;13.90;99.90;;;;;;4946253;29;20427;-83
2022/06/14 06:56:23;;;;;;;13.48;2.05;;;14.00;99.90;;;;;;4939114;29;20031;-83
2022/06/14 06:58:54;;;;;;;11.07;2.33;;;14.10;99.90;;;;;;4929400;29;20030;-83
2022/06/14 07:01:40;;;;;;;10.90;1.83;;;14.00;99.90;;;;;;4938427;29;20376;-83
2022/06/14 07:05:03;;;;;;;9.60;2.08;;;14.00;99.90;;;;;;4953423;28;20058;-83
2022/06/14 07:07:18;;;;;;;14.52;1.98;;;14.10;99.90;;;;;;4970841;28;20026;-83
2022/06/14 07:09:59;;;;;;;11.95;2.05;;;14.20;99.90;;;;;;4964148;28;20031;-83
2022/06/14 07:12:42;;;;;;;8.68;2.35;;;14.20;99.90;;;;;;4956082;28;20019;-83
2022/06/14 07:15:32;;;;;;;12.32;1.95;;;14.30;99.90;;;;;;4950856;28;20026;-82
2022/06/14 07:18:23;;;;;;;10.48;2.05;;;14.50;99.90;;;;;;4955642;28;20023;-83
2022/06/14 07:21:08;;;;;;;4.90;1.45;;;14.50;99.90;;;;;;4959978;28;20027;-82
2022/06/14 07:23:43;;;;;;;8.68;1.73;;;14.50;99.90;;;;;;4955456;28;20031;-85
2022/06/14 07:26:19;;;;;;;6.63;1.58;;;14.60;99.90;;;;;;4950454;29;20038;-83
2022/06/14 07:29:08;;;;;;;7.95;1.65;;;14.60;99.90;;;;;;4962053;28;20038;-84
2022/06/14 07:31:53;;;;;;;6.35;1.90;;;14.60;99.90;;;;;;4953484;28;20093;-83
2022/06/14 07:34:19;;;;;;;9.27;1.45;;;14.50;99.90;;;;;;4951306;28;20036;-83
2022/06/14 07:36:53;;;;;;;11.20;2.13;;;14.60;99.90;;;;;;4949596;29;20039;-83
2022/06/14 07:39:57;;;;;;;7.03;1.92;;;14.60;99.90;;;;;;4940541;28;20086;-83
2022/06/14 07:42:36;;;;;;;9.18;1.90;;;14.70;99.90;;;;;;4937381;29;20483;-83
2022/06/14 07:45:05;;;;;;;9.23;1.75;;;14.80;99.90;;;;;;4937680;28;20030;-82
2022/06/14 07:47:44;;;;;;;9.57;1.85;;;14.80;99.90;;;;;;4969881;28;20027;-83
2022/06/14 07:50:36;;;;;;;8.13;1.58;;;14.90;99.90;;;;;;4955566;28;20030;-83
2022/06/14 07:53:25;;;;;;;7.90;1.48;;;15.00;99.90;;;;;;4937810;29;20023;-82
2022/06/14 07:56:01;;;;;;;9.70;1.77;;;15.10;99.90;;;;;;4936010;29;20134;-84
2022/06/14 07:58:49;;;;;;;13.32;1.83;;;15.10;99.90;;;;;;4960967;28;20026;-84
2022/06/14 08:01:22;;;;;;;14.75;2.33;;;15.30;99.90;;;;;;4947075;28;20047;-83
2022/06/14 08:03:58;;;;;;;11.18;1.98;;;15.30;99.90;;;;;;4931006;29;20050;-82
2022/06/14 08:06:35;;;;;;;14.13;2.50;;;15.40;99.90;;;;;;4946613;28;20051;-82
2022/06/14 08:09:06;;;;;;;7.38;1.55;;;15.40;99.90;;;;;;4949069;28;20026;-82
2022/06/14 08:11:47;;;;;;;16.80;1.98;;;15.40;99.90;;;;;;4958061;28;20118;-83
2022/06/14 08:14:19;;;;;;;11.68;1.90;;;15.30;99.90;;;;;;4921273;28;20511;-83
2022/06/14 08:16:47;;;;;;;12.63;1.90;;;15.40;99.90;;;;;;4954588;28;20036;-82
2022/06/14 08:19:30;;;;;;;7.65;2.00;;;15.40;99.90;;;;;;4968090;28;20087;-83
2022/06/14 08:22:20;;;;;;;11.32;1.90;;;15.50;99.90;;;;;;4937320;29;20531;-83
2022/06/14 08:24:52;;;;;;;9.73;2.03;;;15.50;99.90;;;;;;4945621;28;20023;-83
2022/06/14 08:27:30;;;;;;;14.27;2.20;;;15.50;99.90;;;;;;4946378;29;20032;-83
2022/06/14 08:30:03;;;;;;;16.17;3.50;;;15.40;99.90;;;;;;4929781;29;20166;-82
2022/06/14 08:32:33;;;;;;;14.18;1.92;;;15.30;99.90;;;;;;4952577;28;20554;-82
2022/06/14 08:35:28;;;;;;;6.63;1.20;;;15.30;99.90;;;;;;4967015;28;20386;-82
2022/06/14 08:38:12;;;;;;;10.63;1.77;;;15.40;99.90;;;;;;4969179;28;20517;-82
2022/06/14 08:41:05;;;;;;;7.93;1.50;;;15.50;99.90;;;;;;4965811;28;20027;-82
2022/06/14 08:43:40;;;;;;;5.88;1.45;;;15.70;99.90;;;;;;4959179;28;20019;-82
2022/06/14 08:46:38;;;;;;;7.55;1.65;;;15.90;99.90;;;;;;4954282;29;20031;-83
2022/06/14 08:49:09;;;;;;;5.35;1.50;;;16.00;99.90;;;;;;4953211;28;20058;-84
2022/06/14 08:51:58;;;;;;;9.85;1.67;;;16.00;99.90;;;;;;4939520;28;20028;-83
2022/06/14 08:55:02;;;;;;;8.95;2.15;;;16.00;99.90;;;;;;4957940;28;20392;-83
2022/06/14 08:58:01;;;;;;;10.13;1.70;;;15.90;99.90;;;;;;4951652;28;20078;-82
2022/06/14 09:01:03;;;;;;;8.93;1.70;;;15.90;99.90;;;;;;4935923;29;20054;-82
2022/06/14 09:03:35;;;;;;;11.90;2.13;;;16.00;99.90;;;;;;4951719;28;20436;-82
2022/06/14 09:06:27;;;;;;;10.10;1.98;;;16.00;99.90;;;;;;4936103;29;20078;-83
2022/06/14 09:09:17;;;;;;;6.57;1.83;;;16.10;99.90;;;;;;4944198;28;20039;-84
2022/06/14 09:12:26;;;;;;;9.60;1.42;;;16.30;99.90;;;;;;4949054;28;20031;-84
2022/06/14 09:15:17;;;;;;;8.65;1.75;;;16.40;99.90;;;;;;4949110;28;20098;-83
2022/06/14 09:17:47;;;;;;;10.68;1.95;;;16.50;99.90;;;;;;4962514;28;20122;-83
2022/06/14 09:20:31;;;;;;;12.48;1.85;;;16.50;99.90;;;;;;4923507;29;20054;-83
2022/06/14 09:23:20;;;;;;;8.45;2.17;;;16.60;99.90;;;;;;4942552;28;20892;-84
2022/06/14 09:25:59;;;;;;;8.60;1.70;;;16.50;99.90;;;;;;4973893;28;20035;-83
2022/06/14 09:28:56;;;;;;;11.48;1.83;;;16.50;99.90;;;;;;4958417;28;20019;-83
2022/06/14 09:32:03;;;;;;;14.27;1.85;;;16.50;99.90;;;;;;4937815;29;20464;-83
2022/06/14 09:34:48;;;;;;;24.27;3.28;;;16.50;99.90;;;;;;4938141;29;20554;-82
2022/06/14 09:37:19;;;;;;;8.07;1.67;;;16.40;99.90;;;;;;4969292;28;20032;-83
2022/06/14 09:40:24;;;;;;;8.60;2.05;;;16.50;99.90;;;;;;4953895;29;20015;-83
2022/06/14 09:43:12;;;;;;;11.50;2.50;;;16.60;99.90;;;;;;4958134;28;20106;-83
2022/06/14 09:45:46;;;;;;;16.52;2.15;;;16.80;99.90;;;;;;4961960;28;20118;-82
2022/06/14 09:48:34;;;;;;;10.90;1.63;;;16.90;99.90;;;;;;4960642;28;20085;-83
2022/06/14 09:51:27;;;;;;;10.02;2.30;;;16.90;99.90;;;;;;4973776;28;20425;-82
2022/06/14 09:54:17;;;;;;;10.55;1.75;;;17.00;99.90;;;;;;4961102;28;20068;-82
2022/06/14 09:56:53;;;;;;;10.73;2.53;;;17.00;99.90;;;;;;4945811;28;20038;-83
2022/06/14 09:59:46;;;;;;;8.13;1.70;;;16.90;99.90;;;;;;4963399;28;20035;-83
2022/06/14 10:02:25;;;;;;;8.85;2.10;;;16.90;99.90;;;;;;4933194;29;20434;-82
2022/06/14 10:05:13;;;;;;;20.25;3.03;;;16.90;99.90;;;;;;4962978;28;20085;-82
2022/06/14 10:08:00;;;;;;;9.73;1.35;;;16.90;99.90;;;;;;4964745;28;20038;-83
2022/06/14 10:10:36;;;;;;;11.68;1.92;;;17.00;99.90;;;;;;4943637;29;20479;-83
2022/06/14 10:13:43;;;;;;;6.85;2.17;;;17.10;99.90;;;;;;4950600;29;20031;-84
2022/06/14 10:16:35;;;;;;;13.05;1.77;;;17.20;99.90;;;;;;4953937;28;20031;-84
2022/06/14 10:19:44;;;;;;;9.93;1.80;;;17.40;99.90;;;;;;4963167;28;20134;-84
2022/06/14 10:22:47;;;;;;;5.32;1.70;;;17.50;99.90;;;;;;4943587;28;20416;-83
2022/06/14 10:29:01;;;;;;;18.30;2.47;;;17.70;99.90;;;;;;4958024;28;20035;-84
2022/06/14 10:31:49;;;;;;;5.63;1.55;;;17.70;99.90;;;;;;4954670;28;20463;-84
2022/06/14 10:34:38;;;;;;;10.65;1.85;;;17.70;99.90;;;;;;4949339;28;20079;-84
2022/06/14 10:37:10;;;;;;;10.75;1.90;;;17.80;99.90;;;;;;4933993;29;20483;-84
2022/06/14 10:40:17;;;;;;;7.97;1.65;;;17.90;99.90;;;;;;4950228;28;20032;-85
2022/06/14 10:43:31;;;;;;;12.80;2.08;;;17.90;99.90;;;;;;4966807;28;20047;-85
2022/06/14 10:46:07;;;;;;;8.75;1.70;;;17.90;99.90;;;;;;4915257;29;20154;-85
2022/06/14 10:49:02;;;;;;;9.80;1.92;;;17.80;99.90;;;;;;4939990;29;20582;-85
2022/06/14 10:52:09;;;;;;;15.00;2.95;;;17.80;99.90;;;;;;4969583;28;20035;-85
2022/06/14 10:54:53;;;;;;;;;;;17.80;99.90;;;;;;4890373;29;20047;-84
2022/06/14 10:57:53;;;;;;;11.23;1.90;;;17.80;99.90;;;;;;4895089;29;19929;-84
2022/06/14 11:00:29;;;;;;;7.63;2.08;;;17.90;99.90;;;;;;4946288;28;20066;-85
2022/06/14 11:03:27;;;;;;;13.27;1.60;;;18.00;99.90;;;;;;4969273;28;20106;-85
2022/06/14 11:06:14;;;;;;;9.93;2.17;;;18.00;99.90;;;;;;4952356;28;20058;-85
2022/06/14 11:08:48;;;;;;;9.02;2.08;;;18.20;99.90;;;;;;4965376;28;20391;-84
2022/06/14 11:11:45;;;;;;;9.82;2.22;;;18.40;99.90;;;;;;4957699;28;20387;-86
2022/06/14 11:14:42;;;;;;;7.35;2.00;;;18.50;99.90;;;;;;4941079;28;20023;-84
2022/06/14 11:17:34;;;;;;;8.90;1.77;;;18.50;99.90;;;;;;4962830;28;20122;-84
2022/06/14 11:20:08;;;;;;;7.07;1.90;;;18.50;99.90;;;;;;4969771;28;20118;-84
2022/06/14 11:22:42;;;;;;;10.88;1.60;;;18.50;99.90;;;;;;4969283;28;20463;-84
2022/06/14 11:25:11;;;;;;;10.88;2.10;;;18.60;99.90;;;;;;4937054;28;20118;-84
2022/06/14 11:28:01;;;;;;;8.48;1.90;;;18.50;99.90;;;;;;4969650;28;20073;-82
2022/06/14 11:30:45;;;;;;;10.43;1.98;;;18.50;99.90;;;;;;4953547;28;20034;-83
2022/06/14 11:33:49;;;;;;;10.55;1.70;;;18.70;99.90;;;;;;4957857;28;20035;-84
2022/06/14 11:36:36;;;;;;;7.85;1.90;;;18.80;99.90;;;;;;4971010;28;20038;-84
2022/06/14 11:39:22;;;;;;;10.75;2.03;;;18.70;99.90;;;;;;4956918;28;20027;-84
2022/06/14 11:41:49;;;;;;;;;;;18.70;99.90;;;;;;4945690;28;20025;-83
2022/06/14 11:44:46;;;;;;;8.10;2.33;;;18.80;99.90;;;;;;4960470;28;19918;-83
2022/06/14 11:47:33;;;;;;;8.63;1.90;;;18.90;99.90;;;;;;4950129;28;20035;-84
2022/06/14 11:50:08;;;;;;;9.38;1.90;;;19.00;99.90;;;;;;4947581;28;20042;-84
2022/06/14 11:53:04;;;;;;;10.83;1.93;;;19.20;99.90;;;;;;4934537;29;20036;-83
2022/06/14 11:55:53;;;;;;;11.82;2.70;;;19.30;99.90;;;;;;4952695;28;20027;-83
2022/06/14 11:58:26;;;;;;;9.02;2.10;;;19.30;99.50;;;;;;4950307;28;20117;-83
2022/06/14 12:01:19;;;;;;;7.50;1.65;;;19.20;99.90;;;;;;4939368;28;20382;-83
2022/06/14 12:04:02;;;;;;;10.40;2.10;;;19.20;99.90;;;;;;4950982;28;20039;-83
2022/06/14 12:06:28;;;;;;;8.05;1.75;;;19.10;99.40;;;;;;4949835;28;20027;-84
2022/06/14 12:09:31;;;;;;;11.38;1.85;;;19.10;99.90;;;;;;4960963;28;20027;-83
2022/06/14 12:12:22;;;;;;;15.15;2.35;;;19.00;99.80;;;;;;4961334;28;20433;-84
2022/06/14 12:14:56;;;;;;;10.50;2.35;;;19.00;99.90;;;;;;4964278;28;20052;-83
2022/06/14 12:17:28;;;;;;;6.37;1.50;;;19.00;99.90;;;;;;4957241;28;20027;-84
2022/06/14 12:20:04;;;;;;;5.93;1.70;;;19.00;99.90;;;;;;4962090;28;20376;-84
2022/06/14 12:22:42;;;;;;;6.25;1.50;;;19.00;99.90;;;;;;4961332;28;20035;-83
2022/06/14 12:28:52;;;;;;;8.73;2.03;;;19.30;99.90;;;;;;4949416;28;20038;-86
2022/06/14 12:34:57;;;;;;;8.82;1.70;;;19.80;99.90;;;;;;4967865;28;20043;-84
2022/06/14 12:38:07;;;;;;;7.10;1.80;;;19.90;98.00;;;;;;4943182;28;20034;-86
2022/06/14 12:40:49;;;;;;;7.28;1.77;;;20.00;95.60;;;;;;4954436;29;20374;-85
2022/06/14 12:43:52;;;;;;;8.93;1.60;;;20.10;96.90;;;;;;4956043;28;21672;-84
2022/06/14 12:46:25;;;;;;;9.90;2.55;;;20.00;95.50;;;;;;4961414;28;20054;-85
2022/06/14 12:49:21;;;;;;;7.93;1.98;;;20.00;99.00;;;;;;4969484;28;20124;-86
2022/06/14 12:52:12;;;;;;;8.77;1.60;;;20.00;96.90;;;;;;4961819;28;20023;-85
2022/06/14 12:54:54;;;;;;;9.73;2.25;;;19.90;95.00;;;;;;4953337;28;20045;-86
2022/06/14 12:57:44;;;;;;;12.80;2.10;;;19.80;98.90;;;;;;4947163;29;20148;-86
2022/06/14 13:00:17;;;;;;;7.32;1.75;;;20.10;94.50;;;;;;4954181;29;20573;-87
2022/06/14 13:03:02;;;;;;;11.13;2.25;;;20.20;98.50;;;;;;4963330;28;20035;-85
2022/06/14 13:05:41;;;;;;;9.27;1.50;;;20.40;93.80;;;;;;4967937;28;20030;-85
2022/06/14 13:09:14;;;;;;;14.90;2.08;;;20.40;98.00;;;;;;4930387;28;20030;-86
2022/06/14 13:12:01;;;;;;;10.80;2.45;;;20.40;91.80;;;;;;4895358;29;20378;-86
2022/06/14 13:14:30;;;;;;;5.75;1.25;;;20.40;93.00;;;;;;4896623;29;20032;-86
2022/06/14 13:20:22;;;;;;;11.13;1.98;;;20.10;91.80;;;;;;4974262;28;20518;-86
2022/06/14 13:23:03;;;;;;;7.78;1.60;;;20.00;93.10;;;;;;4960144;28;20142;-87
2022/06/14 13:25:57;;;;;;;9.13;1.75;;;20.00;96.00;;;;;;4956477;28;20028;-85
2022/06/14 13:29:02;;;;;;;6.15;2.03;;;20.00;94.00;;;;;;4954031;28;20475;-88
2022/06/14 13:32:25;;;;;;;3.95;1.48;;;20.20;97.00;;;;;;4951892;28;20135;-88
2022/06/14 13:35:34;;;;;;;11.70;2.13;;;20.50;91.50;;;;;;4854436;29;20115;-85
2022/06/14 13:38:06;;;;;;;6.47;1.80;;;20.70;90.70;;;;;;4947863;28;20380;-87
2022/06/14 13:40:59;;;;;;;6.35;1.17;;;20.80;86.80;;;;;;4947747;28;20033;-86
2022/06/14 13:43:46;;;;;;;10.45;1.88;;;20.80;85.70;;;;;;4967448;28;20118;-86
2022/06/14 13:46:39;;;;;;;6.32;1.88;;;20.60;92.90;;;;;;4951219;28;20383;-85
2022/06/14 13:52:12;;;;;;;9.93;1.80;;;20.60;91.80;;;;;;4938201;28;20099;-90
2022/06/14 13:55:20;;;;;;;9.40;1.50;;;20.60;90.30;;;;;;4941483;29;20050;-87
2022/06/14 13:57:59;;;;;;;7.90;1.73;;;20.80;87.80;;;;;;4959335;28;20447;-89
2022/06/14 14:00:50;;;;;;;9.77;1.70;;;20.80;86.20;;;;;;4943439;29;20020;-90
2022/06/14 14:03:43;;;;;;;4.85;1.40;;;20.90;85.30;;;;;;4960272;28;20067;-85
2022/06/14 14:06:48;;;;;;;11.02;1.92;;;21.00;83.70;;;;;;4949625;28;20032;-86
2022/06/14 14:10:04;;;;;;;11.30;2.05;;;21.00;87.10;;;;;;4968837;28;20030;-86
2022/06/14 14:13:08;;;;;;;15.23;1.90;;;21.10;82.00;;;;;;4945669;28;20032;-87
2022/06/14 14:19:05;;;;;;;9.52;1.52;;;20.80;83.00;;;;;;4951730;29;20051;-87
2022/06/14 14:22:01;;;;;;;7.63;1.52;;;21.00;84.30;;;;;;4942814;29;20035;-87
2022/06/14 14:24:43;;;;;;;5.90;1.38;;;21.00;89.60;;;;;;4956734;28;20394;-87
2022/06/14 14:27:53;;;;;;;8.10;1.85;;;21.00;89.10;;;;;;4959021;28;20023;-88
2022/06/14 14:30:58;;;;;;;6.65;1.95;;;20.90;81.50;;;;;;4939193;28;20055;-86